createdAt,value
2023-01-21T00:05:34.694Z,979.28
2023-01-21T00:20:36.607Z,979.37
2023-01-21T00:35:38.537Z,979.47
2023-01-21T00:50:40.424Z,979.61
2023-01-21T01:05:42.353Z,979.72
2023-01-21T01:20:44.257Z,979.78
2023-01-21T01:35:46.240Z,979.72
2023-01-21T01:50:48.396Z,979.69
2023-01-21T02:05:50.306Z,979.73
2023-01-21T02:20:52.195Z,979.75
2023-01-21T02:35:54.101Z,979.81
2023-01-21T02:50:56.174Z,979.79
2023-01-21T03:05:58.185Z,979.96
2023-01-21T03:21:00.280Z,979.86
2023-01-21T03:36:02.245Z,979.87
2023-01-21T03:51:04.191Z,979.52
2023-01-21T04:06:06.126Z,979.84
2023-01-21T04:21:08.021Z,980.06
2023-01-21T04:36:09.935Z,980.24
2023-01-21T04:51:12.045Z,980.39
2023-01-21T05:06:13.970Z,980.39
2023-01-21T05:21:15.886Z,980.61
2023-01-21T05:36:17.802Z,980.62
2023-01-21T05:51:19.784Z,980.49
2023-01-21T06:06:21.670Z,980.29
2023-01-21T06:21:23.578Z,980.38
2023-01-21T06:36:25.754Z,980.45
2023-01-21T06:51:27.656Z,980.66
2023-01-21T07:06:29.629Z,980.69
2023-01-21T07:21:31.596Z,980.57
2023-01-21T07:36:33.520Z,980.54
2023-01-21T07:51:35.373Z,980.56
2023-01-21T08:06:37.257Z,980.47
2023-01-21T08:21:39.390Z,980.49
2023-01-21T08:36:41.850Z,980.54
2023-01-21T08:51:43.737Z,980.57
2023-01-21T09:06:45.685Z,980.52
2023-01-21T09:21:47.687Z,980.43
2023-01-21T09:36:49.645Z,980.55
2023-01-21T09:51:52.695Z,980.6
2023-01-21T10:06:54.766Z,980.46
2023-01-21T10:21:56.718Z,980.39
2023-01-21T10:36:58.632Z,980.36
2023-01-21T10:52:00.510Z,980.29
2023-01-21T11:07:02.442Z,980.19
2023-01-21T11:22:04.603Z,980.04
2023-01-21T11:37:06.711Z,979.88
2023-01-21T11:52:08.671Z,979.87
2023-01-21T12:07:10.664Z,979.78
2023-01-21T12:22:12.599Z,979.7
2023-01-21T12:37:14.489Z,979.48
2023-01-21T12:52:16.446Z,979.34
2023-01-21T13:07:18.363Z,979.26
2023-01-21T13:22:20.281Z,979.26
2023-01-21T13:37:22.249Z,979.19
2023-01-21T13:52:24.251Z,978.9
2023-01-21T14:07:26.202Z,978.76
2023-01-21T14:22:28.155Z,978.58
2023-01-21T14:37:30.111Z,978.54
2023-01-21T14:52:32.060Z,978.45
2023-01-21T15:07:33.983Z,978.29
2023-01-21T15:22:35.919Z,978.3
2023-01-21T15:37:37.924Z,978.21
2023-01-21T15:52:39.806Z,978.1
2023-01-21T16:07:41.769Z,978.12
2023-01-21T16:22:43.769Z,978.04
2023-01-21T16:37:45.691Z,978.06
2023-01-21T16:52:47.630Z,977.98
2023-01-21T17:07:49.951Z,977.9
2023-01-21T17:22:51.886Z,977.71
2023-01-21T17:37:53.849Z,977.37
2023-01-21T17:52:55.739Z,977.19
2023-01-21T18:07:57.661Z,976.97
2023-01-21T18:22:59.621Z,976.57
2023-01-21T18:38:01.679Z,976.32
2023-01-21T18:53:03.651Z,976
2023-01-21T19:08:05.592Z,975.52
2023-01-21T19:23:07.494Z,975.22
2023-01-21T19:38:09.438Z,974.9
2023-01-21T19:53:11.480Z,974.28
2023-01-21T20:08:13.412Z,973.98
2023-01-21T20:23:15.314Z,973.82
2023-01-21T20:38:17.226Z,973.69
2023-01-21T20:53:19.120Z,973.47
2023-01-21T21:08:21.054Z,973.24
2023-01-21T21:23:23.044Z,972.99
2023-01-21T21:38:24.975Z,972.83
2023-01-21T21:53:26.941Z,972.72
2023-01-21T22:08:28.896Z,972.27
2023-01-21T22:23:30.822Z,971.72
2023-01-21T22:38:32.868Z,971.39
2023-01-21T22:53:34.791Z,971.14
2023-01-21T23:08:36.712Z,971.02
2023-01-21T23:23:38.745Z,970.8
2023-01-21T23:38:40.702Z,970.7
2023-01-21T23:53:42.616Z,970.44
